San Antonio (SAT/KSAT)

Map

Information

Location
San Antonio, TX
Local Time
19:16 / 7:16 pm
GMT Time
00:16 / 12:16 am
Gates
Unassigned
No FAA reported delays
METAR KSAT 222351Z 15014KT 10SM FEW050 FEW250 26/15 A3004 RMK AO2 SLP155 T02610150 10278 20222 56012
TAF KSAT 222345Z 2300/2406 15012KT P6SM FEW050 FEW250 FM230600 16008KT P6SM BKN015 FM230800 16008KT 4SM BR OVC007 FM231400 17012KT P6SM BKN012 FM231600 18018G28KT P6SM BKN250
  • No charts available